sensor_id;sensor_type;location;lat;lon;timestamp;P1;durP1;ratioP1;P2;durP2;ratioP2
66384;SDS011;53426;55.872;37.462;2024-01-06T00:00:49;5.35;;;4.30;;
66384;SDS011;53426;55.872;37.462;2024-01-06T00:03:24;7.22;;;4.82;;
66384;SDS011;53426;55.872;37.462;2024-01-06T00:05:50;7.82;;;5.13;;
66384;SDS011;53426;55.872;37.462;2024-01-06T00:08:16;4.72;;;3.85;;
66384;SDS011;53426;55.872;37.462;2024-01-06T00:10:42;5.97;;;4.43;;
66384;SDS011;53426;55.872;37.462;2024-01-06T00:13:08;6.30;;;3.60;;
66384;SDS011;53426;55.872;37.462;2024-01-06T00:15:34;7.03;;;3.78;;
66384;SDS011;53426;55.872;37.462;2024-01-06T00:18:00;3.35;;;1.85;;
66384;SDS011;53426;55.872;37.462;2024-01-06T00:20:25;7.55;;;4.05;;
66384;SDS011;53426;55.872;37.462;2024-01-06T00:22:52;7.85;;;3.78;;
66384;SDS011;53426;55.872;37.462;2024-01-06T00:25:18;3.75;;;2.83;;
66384;SDS011;53426;55.872;37.462;2024-01-06T00:27:44;5.57;;;3.97;;
66384;SDS011;53426;55.872;37.462;2024-01-06T00:30:10;8.93;;;3.13;;
66384;SDS011;53426;55.872;37.462;2024-01-06T00:32:38;7.65;;;2.70;;
66384;SDS011;53426;55.872;37.462;2024-01-06T00:35:06;5.72;;;3.10;;
66384;SDS011;53426;55.872;37.462;2024-01-06T00:37:34;2.90;;;2.67;;
66384;SDS011;53426;55.872;37.462;2024-01-06T00:40:00;5.53;;;4.10;;
66384;SDS011;53426;55.872;37.462;2024-01-06T00:42:29;5.72;;;2.97;;
66384;SDS011;53426;55.872;37.462;2024-01-06T00:44:56;3.33;;;2.40;;
66384;SDS011;53426;55.872;37.462;2024-01-06T00:47:23;3.47;;;2.78;;
66384;SDS011;53426;55.872;37.462;2024-01-06T00:49:51;4.25;;;3.08;;
66384;SDS011;53426;55.872;37.462;2024-01-06T00:52:17;2.65;;;2.47;;
66384;SDS011;53426;55.872;37.462;2024-01-06T00:54:44;5.35;;;3.63;;
66384;SDS011;53426;55.872;37.462;2024-01-06T00:57:09;5.75;;;3.67;;
66384;SDS011;53426;55.872;37.462;2024-01-06T00:59:37;6.22;;;3.58;;
66384;SDS011;53426;55.872;37.462;2024-01-06T01:02:03;3.92;;;3.30;;
66384;SDS011;53426;55.872;37.462;2024-01-06T01:04:29;3.30;;;2.63;;
66384;SDS011;53426;55.872;37.462;2024-01-06T01:06:58;4.50;;;3.90;;
66384;SDS011;53426;55.872;37.462;2024-01-06T01:09:24;10.05;;;5.15;;
66384;SDS011;53426;55.872;37.462;2024-01-06T01:11:50;5.38;;;3.78;;
66384;SDS011;53426;55.872;37.462;2024-01-06T01:14:16;4.93;;;3.72;;
66384;SDS011;53426;55.872;37.462;2024-01-06T01:16:44;6.90;;;4.70;;
66384;SDS011;53426;55.872;37.462;2024-01-06T01:19:10;6.80;;;3.58;;
66384;SDS011;53426;55.872;37.462;2024-01-06T01:21:36;5.88;;;4.00;;
66384;SDS011;53426;55.872;37.462;2024-01-06T01:24:02;4.15;;;3.65;;
66384;SDS011;53426;55.872;37.462;2024-01-06T01:26:29;8.20;;;4.75;;
66384;SDS011;53426;55.872;37.462;2024-01-06T01:28:55;7.65;;;4.38;;
66384;SDS011;53426;55.872;37.462;2024-01-06T01:31:24;6.32;;;4.05;;
66384;SDS011;53426;55.872;37.462;2024-01-06T01:33:50;18.77;;;4.97;;
66384;SDS011;53426;55.872;37.462;2024-01-06T01:36:17;6.25;;;3.55;;
66384;SDS011;53426;55.872;37.462;2024-01-06T01:38:44;5.65;;;3.70;;
66384;SDS011;53426;55.872;37.462;2024-01-06T01:41:11;5.45;;;3.72;;
66384;SDS011;53426;55.872;37.462;2024-01-06T01:43:39;8.55;;;4.18;;
66384;SDS011;53426;55.872;37.462;2024-01-06T01:46:05;9.40;;;4.13;;
66384;SDS011;53426;55.872;37.462;2024-01-06T01:48:31;4.13;;;3.03;;
66384;SDS011;53426;55.872;37.462;2024-01-06T01:51:02;4.00;;;3.50;;
66384;SDS011;53426;55.872;37.462;2024-01-06T01:53:29;10.18;;;4.20;;
66384;SDS011;53426;55.872;37.462;2024-01-06T01:55:57;6.97;;;3.67;;
66384;SDS011;53426;55.872;37.462;2024-01-06T01:58:26;6.00;;;3.92;;
66384;SDS011;53426;55.872;37.462;2024-01-06T02:00:52;6.43;;;3.10;;
66384;SDS011;53426;55.872;37.462;2024-01-06T02:03:19;12.35;;;3.60;;
66384;SDS011;53426;55.872;37.462;2024-01-06T02:05:47;8.27;;;4.70;;
66384;SDS011;53426;55.872;37.462;2024-01-06T02:08:19;4.45;;;2.53;;
66384;SDS011;53426;55.872;37.462;2024-01-06T02:10:45;8.43;;;3.80;;
66384;SDS011;53426;55.872;37.462;2024-01-06T02:13:13;3.70;;;3.40;;
66384;SDS011;53426;55.872;37.462;2024-01-06T02:15:39;2.95;;;2.38;;
66384;SDS011;53426;55.872;37.462;2024-01-06T02:18:06;3.83;;;3.05;;
66384;SDS011;53426;55.872;37.462;2024-01-06T02:20:34;7.60;;;4.47;;
66384;SDS011;53426;55.872;37.462;2024-01-06T02:23:00;4.88;;;3.40;;
66384;SDS011;53426;55.872;37.462;2024-01-06T02:25:26;4.32;;;2.50;;
66384;SDS011;53426;55.872;37.462;2024-01-06T02:27:52;5.05;;;4.10;;
66384;SDS011;53426;55.872;37.462;2024-01-06T02:30:18;5.45;;;3.03;;
66384;SDS011;53426;55.872;37.462;2024-01-06T02:32:45;5.25;;;2.90;;
66384;SDS011;53426;55.872;37.462;2024-01-06T02:35:11;6.28;;;3.90;;
66384;SDS011;53426;55.872;37.462;2024-01-06T02:37:37;8.35;;;4.13;;
66384;SDS011;53426;55.872;37.462;2024-01-06T02:40:05;4.80;;;3.42;;
66384;SDS011;53426;55.872;37.462;2024-01-06T02:42:31;4.78;;;3.88;;
66384;SDS011;53426;55.872;37.462;2024-01-06T02:44:58;14.15;;;4.47;;
66384;SDS011;53426;55.872;37.462;2024-01-06T02:47:24;5.97;;;3.60;;
66384;SDS011;53426;55.872;37.462;2024-01-06T02:49:50;9.40;;;3.70;;
66384;SDS011;53426;55.872;37.462;2024-01-06T02:52:16;4.68;;;3.03;;
66384;SDS011;53426;55.872;37.462;2024-01-06T02:54:42;7.50;;;4.32;;
66384;SDS011;53426;55.872;37.462;2024-01-06T02:57:08;6.30;;;4.65;;
66384;SDS011;53426;55.872;37.462;2024-01-06T02:59:34;5.32;;;3.78;;
66384;SDS011;53426;55.872;37.462;2024-01-06T03:02:01;9.32;;;4.72;;
66384;SDS011;53426;55.872;37.462;2024-01-06T03:04:27;4.63;;;2.90;;
66384;SDS011;53426;55.872;37.462;2024-01-06T03:06:53;5.95;;;3.80;;
66384;SDS011;53426;55.872;37.462;2024-01-06T03:09:20;9.02;;;5.57;;
66384;SDS011;53426;55.872;37.462;2024-01-06T03:11:46;7.55;;;5.43;;
66384;SDS011;53426;55.872;37.462;2024-01-06T03:14:12;6.50;;;5.28;;
66384;SDS011;53426;55.872;37.462;2024-01-06T03:16:38;8.73;;;4.20;;
66384;SDS011;53426;55.872;37.462;2024-01-06T03:19:04;3.47;;;3.00;;
66384;SDS011;53426;55.872;37.462;2024-01-06T03:21:31;6.10;;;4.00;;
66384;SDS011;53426;55.872;37.462;2024-01-06T03:23:57;9.82;;;5.70;;
66384;SDS011;53426;55.872;37.462;2024-01-06T03:26:23;3.63;;;3.20;;
66384;SDS011;53426;55.872;37.462;2024-01-06T03:28:49;12.10;;;6.60;;
66384;SDS011;53426;55.872;37.462;2024-01-06T03:31:15;8.90;;;5.10;;
66384;SDS011;53426;55.872;37.462;2024-01-06T03:33:42;6.55;;;3.65;;
66384;SDS011;53426;55.872;37.462;2024-01-06T03:36:09;10.10;;;4.80;;
66384;SDS011;53426;55.872;37.462;2024-01-06T03:38:42;4.28;;;3.78;;
66384;SDS011;53426;55.872;37.462;2024-01-06T03:41:08;12.00;;;4.45;;
66384;SDS011;53426;55.872;37.462;2024-01-06T03:43:35;7.70;;;5.30;;
66384;SDS011;53426;55.872;37.462;2024-01-06T03:46:00;9.45;;;5.45;;
66384;SDS011;53426;55.872;37.462;2024-01-06T03:48:27;12.23;;;5.53;;
66384;SDS011;53426;55.872;37.462;2024-01-06T03:50:58;10.85;;;5.93;;
66384;SDS011;53426;55.872;37.462;2024-01-06T03:53:26;10.48;;;5.15;;
66384;SDS011;53426;55.872;37.462;2024-01-06T03:55:52;11.13;;;5.75;;
66384;SDS011;53426;55.872;37.462;2024-01-06T03:58:18;8.50;;;4.55;;
66384;SDS011;53426;55.872;37.462;2024-01-06T04:00:44;8.10;;;5.38;;
66384;SDS011;53426;55.872;37.462;2024-01-06T04:03:10;11.63;;;4.22;;
66384;SDS011;53426;55.872;37.462;2024-01-06T04:05:36;5.18;;;3.28;;
66384;SDS011;53426;55.872;37.462;2024-01-06T04:08:02;7.55;;;5.22;;
66384;SDS011;53426;55.872;37.462;2024-01-06T04:10:30;10.90;;;5.93;;
66384;SDS011;53426;55.872;37.462;2024-01-06T04:12:57;9.45;;;4.32;;
66384;SDS011;53426;55.872;37.462;2024-01-06T04:15:23;7.43;;;5.20;;
66384;SDS011;53426;55.872;37.462;2024-01-06T04:17:49;15.82;;;6.05;;
66384;SDS011;53426;55.872;37.462;2024-01-06T04:20:15;12.82;;;6.10;;
66384;SDS011;53426;55.872;37.462;2024-01-06T04:22:41;15.85;;;5.80;;
66384;SDS011;53426;55.872;37.462;2024-01-06T04:25:07;17.00;;;6.43;;
66384;SDS011;53426;55.872;37.462;2024-01-06T04:27:33;12.18;;;5.22;;
66384;SDS011;53426;55.872;37.462;2024-01-06T04:30:02;21.50;;;6.80;;
66384;SDS011;53426;55.872;37.462;2024-01-06T04:32:30;11.35;;;6.35;;
66384;SDS011;53426;55.872;37.462;2024-01-06T04:34:57;10.25;;;5.97;;
66384;SDS011;53426;55.872;37.462;2024-01-06T04:37:23;17.13;;;7.72;;
66384;SDS011;53426;55.872;37.462;2024-01-06T04:39:49;14.75;;;6.88;;
66384;SDS011;53426;55.872;37.462;2024-01-06T04:42:16;18.70;;;6.30;;
66384;SDS011;53426;55.872;37.462;2024-01-06T04:44:42;12.85;;;5.35;;
66384;SDS011;53426;55.872;37.462;2024-01-06T04:47:08;8.13;;;5.93;;
66384;SDS011;53426;55.872;37.462;2024-01-06T04:49:34;13.63;;;6.72;;
66384;SDS011;53426;55.872;37.462;2024-01-06T04:52:00;11.57;;;5.78;;
66384;SDS011;53426;55.872;37.462;2024-01-06T04:54:26;13.60;;;6.88;;
66384;SDS011;53426;55.872;37.462;2024-01-06T04:56:52;7.75;;;5.22;;
66384;SDS011;53426;55.872;37.462;2024-01-06T04:59:18;14.00;;;6.32;;
66384;SDS011;53426;55.872;37.462;2024-01-06T05:01:44;8.55;;;6.45;;
66384;SDS011;53426;55.872;37.462;2024-01-06T05:04:10;14.10;;;6.10;;
66384;SDS011;53426;55.872;37.462;2024-01-06T05:06:35;9.25;;;5.45;;
66384;SDS011;53426;55.872;37.462;2024-01-06T05:09:01;8.88;;;6.40;;
66384;SDS011;53426;55.872;37.462;2024-01-06T05:11:27;10.02;;;5.60;;
66384;SDS011;53426;55.872;37.462;2024-01-06T05:13:53;14.80;;;7.07;;
66384;SDS011;53426;55.872;37.462;2024-01-06T05:16:19;13.45;;;6.50;;
66384;SDS011;53426;55.872;37.462;2024-01-06T05:18:45;9.60;;;4.18;;
66384;SDS011;53426;55.872;37.462;2024-01-06T05:21:11;10.98;;;6.90;;
66384;SDS011;53426;55.872;37.462;2024-01-06T05:23:37;11.77;;;6.60;;
66384;SDS011;53426;55.872;37.462;2024-01-06T05:26:03;17.15;;;6.80;;
66384;SDS011;53426;55.872;37.462;2024-01-06T05:28:30;14.52;;;6.57;;
66384;SDS011;53426;55.872;37.462;2024-01-06T05:30:56;12.68;;;6.15;;
66384;SDS011;53426;55.872;37.462;2024-01-06T05:33:22;11.05;;;6.30;;
66384;SDS011;53426;55.872;37.462;2024-01-06T05:35:49;11.23;;;5.63;;
66384;SDS011;53426;55.872;37.462;2024-01-06T05:38:15;11.15;;;7.15;;
66384;SDS011;53426;55.872;37.462;2024-01-06T05:40:44;8.23;;;4.95;;
66384;SDS011;53426;55.872;37.462;2024-01-06T05:43:14;19.95;;;7.25;;
66384;SDS011;53426;55.872;37.462;2024-01-06T05:49:31;11.02;;;5.03;;
66384;SDS011;53426;55.872;37.462;2024-01-06T05:51:58;9.40;;;4.68;;
66384;SDS011;53426;55.872;37.462;2024-01-06T05:54:25;12.07;;;5.10;;
66384;SDS011;53426;55.872;37.462;2024-01-06T05:56:51;10.93;;;4.68;;
66384;SDS011;53426;55.872;37.462;2024-01-06T05:59:20;12.25;;;6.38;;
66384;SDS011;53426;55.872;37.462;2024-01-06T06:01:46;7.90;;;5.78;;
66384;SDS011;53426;55.872;37.462;2024-01-06T06:04:12;11.07;;;6.45;;
66384;SDS011;53426;55.872;37.462;2024-01-06T06:06:42;9.10;;;5.53;;
66384;SDS011;53426;55.872;37.462;2024-01-06T06:09:08;15.30;;;6.82;;
66384;SDS011;53426;55.872;37.462;2024-01-06T06:11:35;13.40;;;7.13;;
66384;SDS011;53426;55.872;37.462;2024-01-06T06:14:09;9.48;;;5.63;;
66384;SDS011;53426;55.872;37.462;2024-01-06T06:16:36;14.07;;;5.20;;
66384;SDS011;53426;55.872;37.462;2024-01-06T06:19:02;7.72;;;5.15;;
66384;SDS011;53426;55.872;37.462;2024-01-06T06:21:28;10.35;;;7.15;;
66384;SDS011;53426;55.872;37.462;2024-01-06T06:23:57;18.15;;;6.25;;
66384;SDS011;53426;55.872;37.462;2024-01-06T06:26:23;16.92;;;5.88;;
66384;SDS011;53426;55.872;37.462;2024-01-06T06:28:49;13.55;;;6.38;;
66384;SDS011;53426;55.872;37.462;2024-01-06T06:31:15;12.10;;;7.22;;
66384;SDS011;53426;55.872;37.462;2024-01-06T06:33:41;19.15;;;6.97;;
66384;SDS011;53426;55.872;37.462;2024-01-06T06:36:07;11.93;;;6.72;;
66384;SDS011;53426;55.872;37.462;2024-01-06T06:38:33;10.43;;;6.28;;
66384;SDS011;53426;55.872;37.462;2024-01-06T06:40:59;8.60;;;5.35;;
66384;SDS011;53426;55.872;37.462;2024-01-06T06:43:26;6.57;;;5.03;;
66384;SDS011;53426;55.872;37.462;2024-01-06T06:45:53;21.58;;;8.07;;
66384;SDS011;53426;55.872;37.462;2024-01-06T06:48:21;17.42;;;7.80;;
66384;SDS011;53426;55.872;37.462;2024-01-06T06:50:47;8.73;;;5.85;;
66384;SDS011;53426;55.872;37.462;2024-01-06T06:53:14;16.88;;;8.88;;
66384;SDS011;53426;55.872;37.462;2024-01-06T06:55:40;14.80;;;8.23;;
66384;SDS011;53426;55.872;37.462;2024-01-06T06:58:09;9.80;;;5.53;;
66384;SDS011;53426;55.872;37.462;2024-01-06T07:00:35;11.23;;;5.60;;
66384;SDS011;53426;55.872;37.462;2024-01-06T07:03:03;9.73;;;6.07;;
66384;SDS011;53426;55.872;37.462;2024-01-06T07:05:29;9.48;;;5.50;;
66384;SDS011;53426;55.872;37.462;2024-01-06T07:07:57;11.23;;;6.43;;
66384;SDS011;53426;55.872;37.462;2024-01-06T07:10:26;8.02;;;6.72;;
66384;SDS011;53426;55.872;37.462;2024-01-06T07:12:53;12.90;;;7.38;;
66384;SDS011;53426;55.872;37.462;2024-01-06T07:15:19;8.75;;;6.38;;
66384;SDS011;53426;55.872;37.462;2024-01-06T07:17:45;10.13;;;7.05;;
66384;SDS011;53426;55.872;37.462;2024-01-06T07:20:11;13.23;;;8.27;;
66384;SDS011;53426;55.872;37.462;2024-01-06T07:22:39;14.05;;;8.45;;
66384;SDS011;53426;55.872;37.462;2024-01-06T07:25:07;11.15;;;7.10;;
66384;SDS011;53426;55.872;37.462;2024-01-06T07:27:35;20.40;;;7.53;;
66384;SDS011;53426;55.872;37.462;2024-01-06T07:30:02;18.38;;;6.82;;
66384;SDS011;53426;55.872;37.462;2024-01-06T07:32:31;15.63;;;7.80;;
66384;SDS011;53426;55.872;37.462;2024-01-06T07:34:57;10.20;;;6.53;;
66384;SDS011;53426;55.872;37.462;2024-01-06T07:37:23;16.38;;;7.93;;
66384;SDS011;53426;55.872;37.462;2024-01-06T07:39:49;11.30;;;7.35;;
66384;SDS011;53426;55.872;37.462;2024-01-06T07:42:15;10.30;;;6.78;;
66384;SDS011;53426;55.872;37.462;2024-01-06T07:44:41;15.63;;;8.38;;
66384;SDS011;53426;55.872;37.462;2024-01-06T07:47:10;11.98;;;6.63;;
66384;SDS011;53426;55.872;37.462;2024-01-06T07:56:52;10.70;;;6.93;;
66384;SDS011;53426;55.872;37.462;2024-01-06T07:59:18;30.27;;;10.18;;
66384;SDS011;53426;55.872;37.462;2024-01-06T08:01:45;13.35;;;6.57;;
66384;SDS011;53426;55.872;37.462;2024-01-06T08:04:14;16.02;;;8.68;;
66384;SDS011;53426;55.872;37.462;2024-01-06T08:06:41;14.70;;;7.45;;
66384;SDS011;53426;55.872;37.462;2024-01-06T08:09:07;11.75;;;8.13;;
66384;SDS011;53426;55.872;37.462;2024-01-06T08:11:34;16.10;;;9.45;;
66384;SDS011;53426;55.872;37.462;2024-01-06T08:13:59;18.98;;;8.18;;
66384;SDS011;53426;55.872;37.462;2024-01-06T08:16:25;15.18;;;7.93;;
66384;SDS011;53426;55.872;37.462;2024-01-06T08:18:51;17.40;;;8.48;;
66384;SDS011;53426;55.872;37.462;2024-01-06T08:21:20;18.35;;;9.15;;
66384;SDS011;53426;55.872;37.462;2024-01-06T08:23:46;14.93;;;8.85;;
66384;SDS011;53426;55.872;37.462;2024-01-06T08:26:13;19.23;;;9.55;;
66384;SDS011;53426;55.872;37.462;2024-01-06T08:28:39;22.60;;;10.23;;
66384;SDS011;53426;55.872;37.462;2024-01-06T08:31:13;24.42;;;10.38;;
66384;SDS011;53426;55.872;37.462;2024-01-06T08:33:56;23.50;;;10.57;;
66384;SDS011;53426;55.872;37.462;2024-01-06T08:39:20;15.25;;;9.45;;
66384;SDS011;53426;55.872;37.462;2024-01-06T08:41:47;23.60;;;11.40;;
66384;SDS011;53426;55.872;37.462;2024-01-06T08:44:13;24.95;;;10.77;;
66384;SDS011;53426;55.872;37.462;2024-01-06T08:46:40;19.02;;;10.60;;
66384;SDS011;53426;55.872;37.462;2024-01-06T08:58:43;23.23;;;10.90;;
66384;SDS011;53426;55.872;37.462;2024-01-06T09:04:06;22.92;;;10.27;;
66384;SDS011;53426;55.872;37.462;2024-01-06T09:17:12;23.10;;;10.95;;
66384;SDS011;53426;55.872;37.462;2024-01-06T09:26:02;28.63;;;11.17;;
66384;SDS011;53426;55.872;37.462;2024-01-06T09:28:38;22.70;;;11.40;;
66384;SDS011;53426;55.872;37.462;2024-01-06T09:34:12;16.98;;;10.38;;
66384;SDS011;53426;55.872;37.462;2024-01-06T09:36:38;27.17;;;12.52;;
66384;SDS011;53426;55.872;37.462;2024-01-06T09:39:05;26.88;;;11.40;;
66384;SDS011;53426;55.872;37.462;2024-01-06T09:41:33;34.13;;;12.32;;
66384;SDS011;53426;55.872;37.462;2024-01-06T09:44:07;25.98;;;12.02;;
66384;SDS011;53426;55.872;37.462;2024-01-06T09:46:33;27.83;;;12.35;;
66384;SDS011;53426;55.872;37.462;2024-01-06T09:49:02;24.73;;;11.85;;
66384;SDS011;53426;55.872;37.462;2024-01-06T09:51:28;30.02;;;12.88;;
66384;SDS011;53426;55.872;37.462;2024-01-06T09:53:58;27.40;;;11.48;;
66384;SDS011;53426;55.872;37.462;2024-01-06T09:56:26;30.95;;;11.93;;
66384;SDS011;53426;55.872;37.462;2024-01-06T09:58:55;32.28;;;12.10;;
66384;SDS011;53426;55.872;37.462;2024-01-06T10:01:22;35.08;;;13.60;;
66384;SDS011;53426;55.872;37.462;2024-01-06T10:04:18;30.70;;;12.38;;
66384;SDS011;53426;55.872;37.462;2024-01-06T10:07:03;32.30;;;13.75;;
66384;SDS011;53426;55.872;37.462;2024-01-06T10:09:29;22.02;;;12.15;;
66384;SDS011;53426;55.872;37.462;2024-01-06T10:11:58;26.20;;;12.40;;
66384;SDS011;53426;55.872;37.462;2024-01-06T10:14:31;21.90;;;11.13;;
66384;SDS011;53426;55.872;37.462;2024-01-06T10:16:57;32.53;;;13.77;;
66384;SDS011;53426;55.872;37.462;2024-01-06T10:19:23;27.45;;;12.30;;
66384;SDS011;53426;55.872;37.462;2024-01-06T10:22:01;30.40;;;14.35;;
66384;SDS011;53426;55.872;37.462;2024-01-06T10:29:15;31.95;;;13.32;;
66384;SDS011;53426;55.872;37.462;2024-01-06T10:31:43;24.75;;;10.98;;
66384;SDS011;53426;55.872;37.462;2024-01-06T10:34:09;27.45;;;13.45;;
66384;SDS011;53426;55.872;37.462;2024-01-06T10:36:35;35.45;;;13.73;;
66384;SDS011;53426;55.872;37.462;2024-01-06T10:39:06;28.75;;;12.18;;
66384;SDS011;53426;55.872;37.462;2024-01-06T10:41:37;25.88;;;13.35;;
66384;SDS011;53426;55.872;37.462;2024-01-06T10:44:08;25.60;;;13.95;;
66384;SDS011;53426;55.872;37.462;2024-01-06T10:46:38;49.85;;;14.13;;
66384;SDS011;53426;55.872;37.462;2024-01-06T10:54:58;24.63;;;12.77;;
66384;SDS011;53426;55.872;37.462;2024-01-06T10:58:09;28.67;;;13.30;;
66384;SDS011;53426;55.872;37.462;2024-01-06T11:00:45;33.53;;;14.32;;
66384;SDS011;53426;55.872;37.462;2024-01-06T11:03:14;26.48;;;12.63;;
66384;SDS011;53426;55.872;37.462;2024-01-06T11:05:56;32.92;;;12.73;;
66384;SDS011;53426;55.872;37.462;2024-01-06T11:08:24;40.33;;;14.15;;
66384;SDS011;53426;55.872;37.462;2024-01-06T11:10:55;36.22;;;15.68;;
66384;SDS011;53426;55.872;37.462;2024-01-06T11:13:27;26.10;;;12.35;;
66384;SDS011;53426;55.872;37.462;2024-01-06T11:15:56;31.63;;;15.07;;
66384;SDS011;53426;55.872;37.462;2024-01-06T11:18:32;29.35;;;15.05;;
66384;SDS011;53426;55.872;37.462;2024-01-06T11:21:20;40.38;;;16.27;;
66384;SDS011;53426;55.872;37.462;2024-01-06T11:26:43;36.53;;;16.42;;
66384;SDS011;53426;55.872;37.462;2024-01-06T11:29:10;37.00;;;15.45;;
66384;SDS011;53426;55.872;37.462;2024-01-06T11:35:13;34.13;;;16.48;;
66384;SDS011;53426;55.872;37.462;2024-01-06T11:43:06;37.33;;;16.88;;
66384;SDS011;53426;55.872;37.462;2024-01-06T11:45:49;34.45;;;15.82;;
66384;SDS011;53426;55.872;37.462;2024-01-06T11:48:34;30.38;;;14.45;;
66384;SDS011;53426;55.872;37.462;2024-01-06T11:51:40;35.47;;;14.65;;
66384;SDS011;53426;55.872;37.462;2024-01-06T11:54:08;32.03;;;15.90;;
66384;SDS011;53426;55.872;37.462;2024-01-06T12:01:13;42.58;;;13.43;;
66384;SDS011;53426;55.872;37.462;2024-01-06T12:03:55;30.90;;;12.82;;
66384;SDS011;53426;55.872;37.462;2024-01-06T12:07:08;31.38;;;14.93;;
66384;SDS011;53426;55.872;37.462;2024-01-06T12:17:28;30.70;;;15.25;;
66384;SDS011;53426;55.872;37.462;2024-01-06T12:21:15;29.00;;;14.32;;
66384;SDS011;53426;55.872;37.462;2024-01-06T12:27:58;29.17;;;14.70;;
66384;SDS011;53426;55.872;37.462;2024-01-06T12:33:53;30.52;;;16.38;;
66384;SDS011;53426;55.872;37.462;2024-01-06T12:36:20;34.33;;;16.05;;
66384;SDS011;53426;55.872;37.462;2024-01-06T12:41:46;24.38;;;13.45;;
66384;SDS011;53426;55.872;37.462;2024-01-06T12:47:21;36.95;;;15.32;;
66384;SDS011;53426;55.872;37.462;2024-01-06T12:49:48;29.15;;;13.82;;
66384;SDS011;53426;55.872;37.462;2024-01-06T12:52:14;28.45;;;13.80;;
66384;SDS011;53426;55.872;37.462;2024-01-06T12:54:41;26.42;;;13.55;;
66384;SDS011;53426;55.872;37.462;2024-01-06T12:57:13;28.75;;;15.73;;
66384;SDS011;53426;55.872;37.462;2024-01-06T13:02:58;27.67;;;15.13;;
66384;SDS011;53426;55.872;37.462;2024-01-06T13:05:24;41.10;;;18.00;;
66384;SDS011;53426;55.872;37.462;2024-01-06T13:07:50;27.05;;;14.95;;
66384;SDS011;53426;55.872;37.462;2024-01-06T13:10:17;31.65;;;16.80;;
66384;SDS011;53426;55.872;37.462;2024-01-06T13:13:08;30.25;;;16.55;;
66384;SDS011;53426;55.872;37.462;2024-01-06T13:15:33;35.63;;;15.50;;
66384;SDS011;53426;55.872;37.462;2024-01-06T13:18:03;30.88;;;16.35;;
66384;SDS011;53426;55.872;37.462;2024-01-06T13:20:30;36.00;;;14.60;;
66384;SDS011;53426;55.872;37.462;2024-01-06T13:23:00;30.90;;;17.23;;
66384;SDS011;53426;55.872;37.462;2024-01-06T13:25:46;36.65;;;16.65;;
66384;SDS011;53426;55.872;37.462;2024-01-06T13:28:12;39.03;;;15.23;;
66384;SDS011;53426;55.872;37.462;2024-01-06T13:30:47;39.90;;;16.35;;
66384;SDS011;53426;55.872;37.462;2024-01-06T13:33:13;28.55;;;14.85;;
66384;SDS011;53426;55.872;37.462;2024-01-06T13:35:44;37.60;;;16.33;;
66384;SDS011;53426;55.872;37.462;2024-01-06T13:38:10;37.40;;;15.13;;
66384;SDS011;53426;55.872;37.462;2024-01-06T13:40:37;34.13;;;17.30;;
66384;SDS011;53426;55.872;37.462;2024-01-06T13:43:03;32.78;;;16.95;;
66384;SDS011;53426;55.872;37.462;2024-01-06T13:48:33;27.17;;;14.65;;
66384;SDS011;53426;55.872;37.462;2024-01-06T13:50:59;31.13;;;15.30;;
66384;SDS011;53426;55.872;37.462;2024-01-06T13:53:25;28.50;;;12.63;;
66384;SDS011;53426;55.872;37.462;2024-01-06T13:55:57;23.95;;;11.80;;
66384;SDS011;53426;55.872;37.462;2024-01-06T13:58:23;33.75;;;16.10;;
66384;SDS011;53426;55.872;37.462;2024-01-06T14:00:49;26.42;;;14.48;;
66384;SDS011;53426;55.872;37.462;2024-01-06T14:03:15;29.52;;;14.20;;
66384;SDS011;53426;55.872;37.462;2024-01-06T14:05:51;26.83;;;14.82;;
66384;SDS011;53426;55.872;37.462;2024-01-06T14:08:29;34.63;;;15.65;;
66384;SDS011;53426;55.872;37.462;2024-01-06T14:10:56;38.33;;;17.55;;
66384;SDS011;53426;55.872;37.462;2024-01-06T14:13:25;30.23;;;16.55;;
66384;SDS011;53426;55.872;37.462;2024-01-06T14:18:57;39.85;;;15.27;;
66384;SDS011;53426;55.872;37.462;2024-01-06T14:21:23;39.10;;;17.15;;
66384;SDS011;53426;55.872;37.462;2024-01-06T14:23:53;42.63;;;16.77;;
66384;SDS011;53426;55.872;37.462;2024-01-06T14:26:19;29.90;;;16.38;;
66384;SDS011;53426;55.872;37.462;2024-01-06T14:28:53;33.10;;;15.68;;
66384;SDS011;53426;55.872;37.462;2024-01-06T14:31:24;39.50;;;17.65;;
66384;SDS011;53426;55.872;37.462;2024-01-06T14:33:52;39.22;;;13.70;;
66384;SDS011;53426;55.872;37.462;2024-01-06T14:39:14;32.17;;;14.43;;
66384;SDS011;53426;55.872;37.462;2024-01-06T14:41:40;40.15;;;14.55;;
66384;SDS011;53426;55.872;37.462;2024-01-06T14:44:07;31.70;;;14.90;;
66384;SDS011;53426;55.872;37.462;2024-01-06T14:46:36;25.58;;;14.55;;
66384;SDS011;53426;55.872;37.462;2024-01-06T14:53:11;26.23;;;13.82;;
66384;SDS011;53426;55.872;37.462;2024-01-06T14:55:40;37.15;;;16.02;;
66384;SDS011;53426;55.872;37.462;2024-01-06T14:58:07;35.97;;;15.30;;
66384;SDS011;53426;55.872;37.462;2024-01-06T15:00:37;37.22;;;14.73;;
66384;SDS011;53426;55.872;37.462;2024-01-06T15:03:03;32.13;;;16.08;;
66384;SDS011;53426;55.872;37.462;2024-01-06T15:05:38;30.73;;;14.93;;
66384;SDS011;53426;55.872;37.462;2024-01-06T15:08:07;40.72;;;17.40;;
66384;SDS011;53426;55.872;37.462;2024-01-06T15:10:33;29.95;;;17.95;;
66384;SDS011;53426;55.872;37.462;2024-01-06T15:13:03;32.00;;;14.45;;
66384;SDS011;53426;55.872;37.462;2024-01-06T15:15:31;29.63;;;14.90;;
66384;SDS011;53426;55.872;37.462;2024-01-06T15:17:58;36.05;;;14.57;;
66384;SDS011;53426;55.872;37.462;2024-01-06T15:20:24;31.52;;;15.48;;
66384;SDS011;53426;55.872;37.462;2024-01-06T15:22:50;36.50;;;14.73;;
66384;SDS011;53426;55.872;37.462;2024-01-06T15:25:16;31.25;;;16.10;;
66384;SDS011;53426;55.872;37.462;2024-01-06T15:27:44;33.65;;;15.50;;
66384;SDS011;53426;55.872;37.462;2024-01-06T15:32:49;35.15;;;15.63;;
66384;SDS011;53426;55.872;37.462;2024-01-06T15:35:15;31.70;;;16.92;;
66384;SDS011;53426;55.872;37.462;2024-01-06T15:37:44;31.00;;;16.40;;
66384;SDS011;53426;55.872;37.462;2024-01-06T15:40:12;35.00;;;17.02;;
66384;SDS011;53426;55.872;37.462;2024-01-06T15:42:39;34.50;;;18.30;;
66384;SDS011;53426;55.872;37.462;2024-01-06T15:47:57;33.35;;;16.17;;
66384;SDS011;53426;55.872;37.462;2024-01-06T15:50:23;28.83;;;17.52;;
66384;SDS011;53426;55.872;37.462;2024-01-06T15:52:59;38.47;;;15.63;;
66384;SDS011;53426;55.872;37.462;2024-01-06T15:55:25;32.30;;;16.88;;
66384;SDS011;53426;55.872;37.462;2024-01-06T15:57:51;31.95;;;17.10;;
66384;SDS011;53426;55.872;37.462;2024-01-06T16:00:17;29.65;;;15.63;;
66384;SDS011;53426;55.872;37.462;2024-01-06T16:02:44;47.40;;;15.65;;
66384;SDS011;53426;55.872;37.462;2024-01-06T16:05:12;45.17;;;17.92;;
66384;SDS011;53426;55.872;37.462;2024-01-06T16:07:41;25.92;;;14.05;;
66384;SDS011;53426;55.872;37.462;2024-01-06T16:10:07;38.00;;;17.90;;
66384;SDS011;53426;55.872;37.462;2024-01-06T16:12:33;35.28;;;16.75;;
66384;SDS011;53426;55.872;37.462;2024-01-06T16:17:56;27.17;;;14.52;;
66384;SDS011;53426;55.872;37.462;2024-01-06T16:20:25;27.73;;;14.60;;
66384;SDS011;53426;55.872;37.462;2024-01-06T16:22:51;44.13;;;17.45;;
66384;SDS011;53426;55.872;37.462;2024-01-06T16:25:19;29.35;;;16.70;;
66384;SDS011;53426;55.872;37.462;2024-01-06T16:27:48;34.58;;;17.85;;